Fernando Martinez

Jefe de ojeadores - Atletico Venezuela
6 Ene 2028
Jueves
Continuar

Personalidad

Adaptabilidad (16) Ambición (8) Controversia (7) Lealtad (13) Presión (8) Profesionalismo (9) Deportividad (18) Temperamento (17)

Perfil

Estilo de dirección Democrático
Licencia Continental B
Determinación 8
Gestión de personas 10
Motivación 3
Disciplina 10
Satisfacción laboral
100%
Fatiga
0%
Cargo Jefe de ojeadores
Salario 37.5K p/s
Contrato 14.03.2030

Rendimiento

Comportamiento Bueno
Efectividad del entrenamiento
33%
Desarrollo de jugadores
45%
Prevención de lesiones
25%
Implementación táctica
20%

Eventos recientes

Evaluó a un jugador 7d atrás
Asistió a una reunión de captación 7d atrás
Recomendó un objetivo de fichaje 7d atrás
Presentó un informe a la directiva 7d atrás
Evaluó a un jugador 14d atrás
Asistió a una reunión de captación 14d atrás
Recomendó un objetivo de fichaje 14d atrás
Presentó un informe a la directiva 14d atrás

Actualmente siguiendo

125
Jugador Club Estado Habilidad Confianza Observado Última observación Último voto
Nahuel Pezzini Arsenal Activo 112 / 111 40% 2 27.12.2027 -
Víctor Saya Deportivo La Guaira Informe listo 72 / 87 69% 1 27.12.2027 -
Nahuel Galardi Maipú Negociando 119 / 115 40% 1 27.12.2027 -
Joaquín Bigo Tristán Suárez Activo 115 / 107 40% 1 27.12.2027 -
Franco Carretero Deportivo Lara Negociando 110 / 104 40% 1 20.12.2027 -
Michele Di Gregorio Juventus Activo 155 / 164 40% 1 20.12.2027 -
George Wickens Lincoln City Activo 136 / 132 40% 1 20.12.2027 -
Cristopher Varela Deportivo La Guaira Activo 120 / 123 40% 1 13.12.2027 -
Agustín Lastra Estudiantes Negociando 119 / 109 40% 1 13.12.2027 -
Dino Trotta Deportivo La Guaira Negociando 81 / 82 69% 1 01.12.2027 -
Agustín Módica Gimnasia y Esgrima Activo 125 / 128 40% 1 01.12.2027 -
Carlos Torres Orenburg Activo 105 / 93 40% 1 01.12.2027 -
Juan Rocca Gimnasia y Tiro Activo 118 / 110 40% 1 01.12.2027 -
Naygers Flores Deportivo La Guaira Activo 86 / 86 69% 1 01.06.2027 Aprobar
Sergio Carrasco Cobresal Activo 98 / 96 40% 1 01.06.2027 -
Sebastián Cocimano Nueva Chicago Activo 108 / 110 40% 1 01.06.2027 -
Alexander Díaz Deportivo Riestra Activo 114 / 116 40% 1 01.06.2027 -
Louis Appéré Cambridge United Activo 93 / 101 40% 1 27.11.2026 -
Matty Stevens AFC Wimbledon Activo 105 / 96 40% 1 27.11.2026 -
Lee Bonis Chesterfield Activo 95 / 116 40% 2 26.11.2026 -
Jonás Luna Santa Clara Activo 118 / 108 40% 1 26.11.2026 -
Edarlyn Reyes Arsenal Tula Activo 120 / 120 40% 4 25.11.2026 -
Vyacheslav Grulev Nizhniy Novgorod Activo 107 / 112 40% 3 25.11.2026 -
Anderson Gutiérrez Chelyabinsk Activo 96 / 97 40% 1 25.11.2026 -
Nathan Ordaz Metalist Activo 100 / 104 40% 1 24.11.2026 -
Sonny Perkins Leyton Orient Activo 84 / 100 40% 1 24.11.2026 -
Breel Embolo Atlanta United FC Activo 147 / 133 40% 5 21.11.2026 -
Marcos Cuenca Zaragoza Activo 104 / 122 40% 4 20.11.2026 -
Isaac Matondo Koper Activo 98 / 90 40% 1 20.11.2026 -
Sebastián Ybares Neftekhimik Activo 92 / 98 40% 1 17.11.2026 -
Mauro Rodrigues Botev Plovdiv Activo 107 / 97 40% 1 16.11.2026 -
Ekain Orobengoa Real Sociedad Activo 94 / 91 40% 3 14.11.2026 -
Gilson Benchimol Akron Activo 117 / 113 40% 1 14.11.2026 -
Alexandr Saplinov Volga Activo 99 / 95 40% 1 10.11.2026 -
Johnly Yfeko Exeter City Activo 102 / 103 40% 1 10.11.2026 -
Job Ochieng Real Sociedad Activo 115 / 94 40% 3 08.11.2026 -
Eduardo Armenta Ufa Activo 92 / 91 40% 1 07.11.2026 -
Kenan Dervišagić Floriana Activo 108 / 103 40% 2 06.11.2026 -
Axel Pérez NK Domzale Activo 96 / 114 40% 1 06.11.2026 -
Fabricio Oviedo Rosario Central Activo 100 / 117 40% 1 04.11.2026 -
Stephen Humphrys Bradford City Activo 102 / 96 40% 2 03.11.2026 -
Sergio Riffo NK Zavrc Activo 104 / 103 40% 3 01.11.2026 -
Kamran Aliev SKA Khabarovsk Activo 111 / 106 40% 1 30.10.2026 -
Jhon Flor Sokol Activo 78 / 105 40% 1 30.10.2026 -
Juan Manuel Jorge Defensor Sporting Activo 109 / 109 40% 1 30.10.2026 -
Esteven Salguero Patriotas Activo 105 / 99 40% 2 28.10.2026 -
Marcus Browne AFC Wimbledon Activo 112 / 89 40% 2 27.10.2026 -
Mario García Racing Santander Activo 114 / 128 40% 2 27.10.2026 -
Luka Kurtovic NK Domzale Activo 121 / 113 40% 4 26.10.2026 -
Yeangel Montero Naxxar Lions Activo 101 / 118 40% 1 26.10.2026 -
Aldahir Pérez Tijuana Activo 102 / 122 40% 1 25.10.2026 -
Mauro Smarra Deportivo Riestra Activo 106 / 108 40% 1 24.10.2026 -
Milton Castagna Neftekhimik Activo 104 / 91 40% 1 23.10.2026 -
Sam Nombe Milton Keynes Dons Activo 119 / 99 40% 2 21.10.2026 -
Gaspar Duarte Rosario Central Activo 114 / 115 40% 2 20.10.2026 -
Robert Murić Floriana Activo 101 / 117 40% 1 20.10.2026 -
Diego Valencia Universidad Catolica Activo 110 / 105 40% 3 19.10.2026 -
Martin Sekulić Ural Activo 116 / 109 40% 3 19.10.2026 -
Milan Tučić ND Gorica Activo 95 / 107 40% 1 19.10.2026 -
Gabriel Jesus Barcelona Activo 165 / 162 40% 6 18.10.2026 -
Diego Méndez Tacuarembo Activo 85 / 87 40% 5 17.10.2026 -
Facundo Pimienta Atlético Tucumán Activo 89 / 101 40% 1 15.10.2026 -
Joaquín Rivero Instituto Activo 87 / 92 40% 3 13.10.2026 -
Thiago Ponce Rosario Central Activo 97 / 101 40% 1 12.10.2026 -
Ignacio Sabatini Gimnasia y Esgrima Activo 100 / 109 40% 1 10.10.2026 -
Gorka Gorosabel Real Sociedad Activo 99 / 130 40% 1 09.10.2026 -
Vladimir Khubulov Dinamo Makhachkala Activo 104 / 123 40% 1 09.10.2026 -
Manprit Sarkaria Austria Wien Activo 126 / 129 40% 1 08.10.2026 -
Luis Rojas Universidad de Concepcion Activo 92 / 93 40% 2 02.10.2026 -
Cristhofer Mesías Universidad de Concepcion Activo 95 / 109 40% 1 30.09.2026 -
Juan Salas Patronato Activo 113 / 117 40% 1 30.09.2026 -
Mariano Bracamonte Deportivo Riestra Activo 113 / 116 40% 2 29.09.2026 -
Kyle Joseph Middlesbrough Activo 104 / 113 40% 2 26.09.2026 -
Bojan Radulović Huddersfield Town Activo 117 / 101 40% 1 25.09.2026 -
Luca Babino Huracán Activo 115 / 113 40% 1 25.09.2026 -
Amadou Diawara Leganés Activo 112 / 122 40% 1 25.09.2026 -
Carlos Rosel Grodig Activo 92 / 98 40% 1 23.09.2026 -
Lautaro Mora Huracán Activo 102 / 121 40% 1 23.09.2026 -
Lewis McCann Fleetwood Town Activo 98 / 102 40% 1 21.09.2026 -
Lautaro Quiroga Defensa y Justicia Activo 97 / 108 40% 1 21.09.2026 -
Alexei Dominguez Pachuca Activo 101 / 96 40% 1 17.09.2026 -
Tomás Orqueida Mattersburg Activo 108 / 96 40% 1 17.09.2026 -
David Barrero Nizhniy Novgorod Activo 95 / 83 40% 1 16.09.2026 -
Duván Mósquera Aguilas Doradas Activo 111 / 108 40% 1 16.09.2026 -
Facundo Pérez Juventud Activo 96 / 105 40% 1 15.09.2026 -
Lander Astiazarán Real Sociedad Activo 113 / 111 40% 1 15.09.2026 -
Galo Galarza Estudiantes Activo 91 / 96 40% 1 15.09.2026 -
Juan Román Zarza BK Hacken Activo 90 / 88 40% 1 14.09.2026 -
Maximo Ingravidi Colón Activo 95 / 113 40% 1 13.09.2026 -
Bruno Hernández Cerro Largo Activo 91 / 97 40% 1 11.09.2026 -
Alexis Dulón Huracán Activo 87 / 91 40% 1 11.09.2026 -
Tomás Romero Unión de Santa Fe Activo 91 / 101 40% 1 11.09.2026 -
Cristhian Medina Dinamo Brest Activo 86 / 88 40% 1 01.09.2026 -
Marcos Camarda Santiago Wanderers Activo 100 / 104 40% 4 31.08.2026 -
Agustín Zabaleta Chaco For Ever Activo 95 / 88 40% 1 31.08.2026 -
Gonzalo Tapia Palestino Activo 100 / 101 40% 1 31.08.2026 -
Agustín Fernández NK Zavrc Activo 84 / 92 40% 1 30.08.2026 -
Richard Celis Zamora Activo 100 / 117 40% 1 30.08.2026 -
Jandro Orellana Cádiz Activo 118 / 104 40% 1 30.08.2026 -
Gonzalo Larrazábal Deportivo Maldonado Activo 94 / 90 40% 1 28.08.2026 -
Gonzalo Aguirre Cienciano Activo 93 / 96 40% 1 28.08.2026 -
Jeriel De Santis Caracas Activo 99 / 95 40% 1 27.08.2026 -
Adalberto Peñaranda Deportivo Tachira Activo 113 / 105 40% 2 26.08.2026 -
Junior Paredes Trujillanos Activo 92 / 107 40% 1 25.08.2026 -
Kavier Ortiz Metropolitanos Activo 99 / 103 40% 1 25.08.2026 -
Francisco Galván Deportivo Municipal Activo 103 / 99 40% 2 18.08.2026 -
Tadeo Polli San Martín Activo 92 / 88 40% 1 18.08.2026 -
Tobías Bovone Deportivo Pereira Activo 114 / 109 40% 1 16.08.2026 -
Gerónimo Tomasetti Temperley Activo 112 / 115 40% 1 16.08.2026 -
Tomás Galván River Plate Activo 118 / 115 40% 1 15.08.2026 -
Franco Sivetti Gimnasia y Tiro Activo 113 / 102 40% 1 15.08.2026 -
Jules-Anthony Vilsaint Toronto FC Activo 106 / 105 40% 1 12.08.2026 -
Ramiro Ruiz Rodríguez Atlético Tucumán Activo 125 / 112 40% 1 11.08.2026 -
Bruno Gomes Valletta Activo 85 / 108 40% 1 10.08.2026 -
Hakeeb Adelakun Doncaster Rovers Activo 98 / 117 40% 1 10.08.2026 -
Joaquín Zappacosta Morón Activo 86 / 87 40% 1 09.08.2026 -
Cristian Núñez Huracán Activo 107 / 114 40% 1 06.08.2026 -
Jano Franco Independiente Rivadavia Activo 92 / 82 40% 1 06.08.2026 -
Jeremy Rafanello Philadelphia Union Activo 93 / 101 40% 1 05.08.2026 -
Alassana Jatta Notts County Activo 105 / 119 40% 2 04.08.2026 -
Elías Ovelar Dinamo Brest Activo 96 / 83 40% 1 04.08.2026 -
Martín Pino Godoy Cruz Activo 114 / 106 40% 1 02.08.2026 -
Joe Abrigo Palestino Activo 118 / 115 40% 1 02.08.2026 -
David Barbona Defensa y Justicia Activo 120 / 113 40% 1 01.08.2026 -
Pablo Durán Celta Activo 124 / 122 40% 1 01.08.2026 -